createdAt,value
2023-02-07T00:03:13.592Z,7.90
2023-02-07T00:08:16.465Z,12.15
2023-02-07T00:13:19.005Z,8.13
2023-02-07T00:18:21.476Z,6.25
2023-02-07T00:23:23.921Z,15.90
2023-02-07T00:28:26.708Z,9.95
2023-02-07T00:33:29.236Z,8.38
2023-02-07T00:38:32.084Z,3.67
2023-02-07T00:43:35.007Z,7.53
2023-02-07T00:48:39.636Z,7.70
2023-02-07T00:53:45.179Z,8.00
2023-02-07T00:58:49.512Z,7.70
2023-02-07T01:03:53.702Z,12.45
2023-02-07T01:09:00.644Z,4.55
2023-02-07T01:14:05.948Z,4.78
2023-02-07T01:19:10.768Z,8.43
2023-02-07T01:24:13.429Z,4.80
2023-02-07T01:29:16.362Z,5.43
2023-02-07T01:34:18.861Z,6.85
2023-02-07T01:39:22.592Z,7.03
2023-02-07T01:44:24.979Z,7.47
2023-02-07T01:49:31.921Z,3.65
2023-02-07T01:54:36.884Z,7.20
2023-02-07T01:59:44.182Z,5.13
2023-02-07T02:04:46.869Z,3.55
2023-02-07T02:09:49.320Z,5.13
2023-02-07T02:15:10.368Z,2.42
2023-02-07T02:20:54.433Z,9.32
2023-02-07T02:25:58.210Z,2.13
2023-02-07T02:31:00.654Z,7.47
2023-02-07T02:36:05.679Z,5.57
2023-02-07T02:41:35.676Z,3.30
2023-02-07T02:46:41.762Z,6.38
2023-02-07T02:51:44.755Z,8.38
2023-02-07T02:56:48.232Z,8.68
2023-02-07T03:02:26.380Z,7.35
2023-02-07T03:08:06.284Z,4.80
2023-02-07T03:13:30.430Z,3.72
2023-02-07T03:18:53.981Z,6.60
2023-02-07T03:23:59.624Z,5.10
2023-02-07T03:29:06.600Z,5.05
2023-02-07T03:34:16.783Z,4.72
2023-02-07T03:39:19.514Z,6.00
2023-02-07T03:44:25.694Z,4.13
2023-02-07T03:49:28.202Z,7.25
2023-02-07T03:54:30.661Z,8.05
2023-02-07T03:59:33.244Z,6.00
2023-02-07T04:04:36.492Z,6.25
2023-02-07T04:09:38.815Z,7.25
2023-02-07T04:14:41.292Z,12.63
2023-02-07T04:19:43.731Z,8.52
2023-02-07T04:24:46.775Z,7.30
2023-02-07T04:29:49.241Z,7.20
2023-02-07T04:34:51.576Z,13.57
2023-02-07T04:39:54.024Z,6.95
2023-02-07T04:44:56.462Z,3.88
2023-02-07T04:49:58.890Z,4.85
2023-02-07T04:55:01.333Z,8.57
2023-02-07T05:00:04.895Z,5.40
2023-02-07T05:05:08.045Z,3.55
2023-02-07T05:10:10.673Z,5.70
2023-02-07T05:15:13.051Z,9.18
2023-02-07T05:20:15.622Z,9.18
2023-02-07T05:25:18.475Z,8.25
2023-02-07T05:30:21.469Z,9.02
2023-02-07T05:35:23.958Z,7.88
2023-02-07T05:40:26.409Z,7.47
2023-02-07T05:45:29.156Z,7.57
2023-02-07T05:50:32.044Z,4.55
2023-02-07T05:55:41.590Z,5.88
2023-02-07T06:00:44.244Z,7.65
2023-02-07T06:05:46.652Z,2.50
2023-02-07T06:10:49.840Z,8.20
2023-02-07T06:15:53.349Z,9.27
2023-02-07T06:20:56.423Z,7.85
2023-02-07T06:25:58.829Z,6.55
2023-02-07T06:31:01.436Z,7.28
2023-02-07T06:36:04.293Z,10.38
2023-02-07T06:41:11.226Z,14.90
2023-02-07T06:46:13.962Z,10.20
2023-02-07T06:51:16.517Z,9.85
2023-02-07T06:56:19.079Z,9.02
2023-02-07T07:01:22.660Z,16.10
2023-02-07T07:06:25.194Z,9.57
2023-02-07T07:11:27.646Z,14.05
2023-02-07T07:16:30.138Z,7.57
2023-02-07T07:21:32.941Z,6.18
2023-02-07T07:26:48.437Z,8.00
2023-02-07T07:31:52.154Z,9.02
2023-02-07T07:36:57.008Z,10.05
2023-02-07T07:41:59.901Z,6.57
2023-02-07T07:47:20.982Z,8.68
2023-02-07T07:52:23.563Z,7.65
2023-02-07T07:57:28.478Z,12.05
2023-02-07T08:02:30.928Z,10.88
2023-02-07T08:07:33.495Z,7.13
2023-02-07T08:12:36.075Z,5.30
2023-02-07T08:17:38.612Z,6.85
2023-02-07T08:22:41.185Z,4.60
2023-02-07T08:27:43.847Z,10.07
2023-02-07T08:32:47.400Z,9.20
2023-02-07T08:37:50.521Z,7.35
2023-02-07T08:42:53.181Z,6.85
2023-02-07T08:47:55.654Z,6.40
2023-02-07T08:52:58.312Z,6.05
2023-02-07T08:58:00.749Z,8.10
2023-02-07T09:03:04.515Z,5.45
2023-02-07T09:08:07.128Z,10.40
2023-02-07T09:13:09.700Z,8.32
2023-02-07T09:18:12.209Z,8.93
2023-02-07T09:23:20.576Z,4.13
2023-02-07T09:28:23.254Z,6.70
2023-02-07T09:33:26.278Z,4.38
2023-02-07T09:38:29.024Z,4.82
2023-02-07T09:44:00.317Z,7.90
2023-02-07T09:49:37.870Z,6.15
2023-02-07T09:54:44.027Z,9.88
2023-02-07T09:59:50.914Z,5.97
2023-02-07T10:04:59.180Z,6.40
2023-02-07T10:10:01.786Z,6.68
2023-02-07T10:15:20.165Z,6.35
2023-02-07T10:20:40.653Z,9.63
2023-02-07T10:26:12.019Z,4.15
2023-02-07T10:31:17.782Z,6.85
2023-02-07T10:36:20.765Z,9.38
2023-02-07T10:41:31.190Z,8.02
2023-02-07T10:46:35.849Z,10.23
2023-02-07T10:51:44.516Z,8.02
2023-02-07T10:56:49.024Z,8.00
2023-02-07T11:01:54.579Z,8.75
2023-02-07T11:12:15.570Z,5.65
2023-02-07T11:17:22.059Z,6.68
2023-02-07T11:22:28.233Z,4.40
2023-02-07T11:27:41.307Z,6.57
2023-02-07T11:32:44.825Z,4.93
2023-02-07T11:37:49.512Z,6.05
2023-02-07T11:43:10.095Z,6.07
2023-02-07T11:48:31.225Z,11.25
2023-02-07T11:54:05.895Z,6.32
2023-02-07T11:59:18.595Z,8.48
2023-02-07T12:04:27.819Z,4.55
2023-02-07T12:09:40.092Z,4.93
2023-02-07T12:15:02.358Z,6.57
2023-02-07T12:20:29.334Z,11.27
2023-02-07T12:25:57.145Z,9.63
2023-02-07T12:31:06.574Z,5.40
2023-02-07T12:36:19.980Z,6.72
2023-02-07T12:41:41.383Z,8.23
2023-02-07T12:47:05.560Z,8.93
2023-02-07T12:52:46.262Z,15.55
2023-02-07T12:58:06.546Z,5.95
2023-02-07T13:03:33.291Z,7.00
2023-02-07T13:08:55.370Z,7.28
2023-02-07T13:14:09.553Z,10.88
2023-02-07T13:19:29.081Z,10.45
2023-02-07T13:24:33.384Z,7.00
2023-02-07T13:29:37.853Z,13.05
2023-02-07T13:34:46.624Z,8.23
2023-02-07T13:39:59.042Z,10.18
2023-02-07T13:45:21.524Z,12.95
2023-02-07T13:50:39.228Z,8.35
2023-02-07T13:55:43.746Z,10.00
2023-02-07T14:00:56.249Z,14.07
2023-02-07T14:11:44.491Z,10.02
2023-02-07T14:16:56.280Z,13.25
2023-02-07T14:22:20.913Z,15.93
2023-02-07T14:27:34.864Z,10.65
2023-02-07T14:33:04.202Z,15.52
2023-02-07T14:38:06.959Z,14.35
2023-02-07T14:43:12.220Z,10.68
2023-02-07T14:48:42.355Z,19.15
2023-02-07T14:53:46.831Z,16.35
2023-02-07T14:58:52.088Z,19.15
2023-02-07T15:04:06.086Z,13.73
2023-02-07T15:09:18.585Z,12.15
2023-02-07T15:14:33.516Z,15.77
2023-02-07T15:19:42.438Z,16.42
2023-02-07T15:24:51.408Z,10.60
2023-02-07T15:30:03.602Z,16.58
2023-02-07T15:35:17.510Z,17.63
2023-02-07T15:40:25.601Z,13.60
2023-02-07T15:45:32.660Z,18.23
2023-02-07T15:50:41.925Z,16.30
2023-02-07T15:55:50.883Z,12.50
2023-02-07T16:00:53.703Z,15.02
2023-02-07T16:06:32.926Z,21.80
2023-02-07T16:11:40.250Z,13.80
2023-02-07T16:16:56.081Z,12.35
2023-02-07T16:21:58.411Z,14.25
2023-02-07T16:27:00.935Z,20.40
2023-02-07T16:32:04.663Z,17.30
2023-02-07T16:37:07.992Z,14.35
2023-02-07T16:42:15.436Z,16.10
2023-02-07T16:47:18.854Z,11.27
2023-02-07T16:52:21.361Z,14.65
2023-02-07T16:57:23.836Z,13.77
2023-02-07T17:02:26.362Z,12.70
2023-02-07T17:07:29.269Z,15.00
2023-02-07T17:12:31.734Z,10.05
2023-02-07T17:17:34.117Z,11.40
2023-02-07T17:22:36.550Z,10.63
2023-02-07T17:27:39.066Z,18.58
2023-02-07T17:32:41.533Z,10.18
2023-02-07T17:37:44.388Z,13.05
2023-02-07T17:42:47.153Z,22.33
2023-02-07T17:47:49.786Z,15.63
2023-02-07T17:52:52.274Z,11.35
2023-02-07T17:57:54.883Z,15.15
2023-02-07T18:02:57.353Z,14.77
2023-02-07T18:08:00.181Z,21.05
2023-02-07T18:13:02.971Z,10.50
2023-02-07T18:18:05.716Z,21.17
2023-02-07T18:23:08.274Z,13.30
2023-02-07T18:28:10.843Z,17.30
2023-02-07T18:33:14.333Z,22.30
2023-02-07T18:38:16.805Z,16.02
2023-02-07T18:43:19.328Z,21.45
2023-02-07T18:48:21.761Z,16.95
2023-02-07T18:53:24.345Z,19.63
2023-02-07T18:58:26.712Z,24.33
2023-02-07T19:03:29.105Z,24.30
2023-02-07T19:08:31.642Z,18.48
2023-02-07T19:13:35.538Z,22.67
2023-02-07T19:18:37.937Z,16.33
2023-02-07T19:23:41.139Z,19.30
2023-02-07T19:28:43.627Z,16.50
2023-02-07T19:33:50.909Z,25.08
2023-02-07T19:38:54.649Z,28.40
2023-02-07T19:43:57.995Z,17.67
2023-02-07T19:49:00.543Z,31.70
2023-02-07T19:54:03.517Z,19.42
2023-02-07T19:59:07.243Z,14.98
2023-02-07T20:04:09.725Z,16.20
2023-02-07T20:09:12.226Z,19.80
2023-02-07T20:14:14.739Z,20.92
2023-02-07T20:19:17.383Z,23.88
2023-02-07T20:24:19.818Z,15.90
2023-02-07T20:29:23.358Z,19.52
2023-02-07T20:34:25.890Z,17.23
2023-02-07T20:39:30.912Z,19.30
2023-02-07T20:44:33.559Z,20.33
2023-02-07T20:49:35.992Z,22.27
2023-02-07T20:54:38.452Z,31.58
2023-02-07T20:59:40.994Z,19.02
2023-02-07T21:04:43.603Z,11.25
2023-02-07T21:09:46.049Z,18.65
2023-02-07T21:14:48.663Z,18.58
2023-02-07T21:19:51.161Z,11.95
2023-02-07T21:24:53.572Z,20.38
2023-02-07T21:29:56.049Z,17.85
2023-02-07T21:34:58.474Z,20.77
2023-02-07T21:40:00.969Z,24.08
2023-02-07T21:45:04.465Z,14.10
2023-02-07T21:50:07.144Z,18.05
2023-02-07T21:55:09.743Z,18.17
2023-02-07T22:00:13.509Z,15.77
2023-02-07T22:05:16.213Z,19.65
2023-02-07T22:10:18.845Z,16.75
2023-02-07T22:15:21.272Z,19.00
2023-02-07T22:20:23.780Z,21.67
2023-02-07T22:25:26.280Z,23.27
2023-02-07T22:30:28.701Z,20.40
2023-02-07T22:35:36.894Z,16.27
2023-02-07T22:40:41.432Z,25.05
2023-02-07T22:45:46.465Z,21.88
2023-02-07T22:50:49.048Z,23.65
2023-02-07T22:55:51.535Z,26.13
2023-02-07T23:00:54.019Z,25.77
2023-02-07T23:05:56.646Z,13.48
2023-02-07T23:10:59.095Z,18.48
2023-02-07T23:16:01.632Z,14.25
2023-02-07T23:21:08.846Z,15.50
2023-02-07T23:26:14.394Z,17.50
2023-02-07T23:31:18.397Z,20.30
2023-02-07T23:36:21.125Z,20.98
2023-02-07T23:41:23.700Z,24.80
2023-02-07T23:46:27.325Z,14.32
2023-02-07T23:51:29.819Z,30.42
2023-02-07T23:56:32.596Z,23.52
